Time;durP1;ratioP1;P1;durP2;ratioP2;P2;SDS_P1;SDS_P2;PMS_P1;PMS_P2;Temp;Humidity;BMP_temperature;BMP_pressure;BME280_temperature;BME280_humidity;BME280_pressure;Samples;Min_cycle;Max_cycle;Signal;HPM_P1;HPM_P2
2021/05/22 00:02:21;;;;;;;0.20;0.20;;;9.50;99.90;;;;;;5055949;28;20119;-74
2021/05/22 00:04:47;;;;;;;0.52;0.52;;;9.50;99.90;;;;;;5055608;28;20031;-74
2021/05/22 00:07:13;;;;;;;0.30;0.30;;;9.60;99.90;;;;;;5073540;28;20024;-74
2021/05/22 00:09:39;;;;;;;0.17;0.17;;;9.60;99.90;;;;;;5055771;28;20066;-74
2021/05/22 00:12:05;;;;;;;0.20;0.20;;;9.40;99.90;;;;;;5055446;28;20087;-73
2021/05/22 00:14:31;;;;;;;0.30;0.30;;;9.20;99.90;;;;;;5055649;28;20486;-74
2021/05/22 00:16:56;;;;;;;0.20;0.20;;;9.00;99.90;;;;;;5055289;28;20059;-74
2021/05/22 00:19:22;;;;;;;0.20;0.20;;;9.20;99.90;;;;;;5055402;28;20051;-73
2021/05/22 00:21:48;;;;;;;0.20;0.20;;;9.10;99.90;;;;;;5055481;28;20123;-73
2021/05/22 00:24:14;;;;;;;1.02;0.60;;;9.20;99.90;;;;;;5073319;28;20029;-73
2021/05/22 00:26:40;;;;;;;1.65;0.52;;;9.10;99.90;;;;;;5055011;28;20024;-73
2021/05/22 00:29:06;;;;;;;0.40;0.40;;;9.10;99.90;;;;;;5073285;28;20519;-73
2021/05/22 00:31:33;;;;;;;0.30;0.30;;;9.00;99.90;;;;;;5072832;28;20038;-74
2021/05/22 00:33:59;;;;;;;0.10;0.10;;;8.60;99.90;;;;;;5073073;28;20073;-74
2021/05/22 00:36:25;;;;;;;0.20;0.20;;;8.50;99.90;;;;;;5086996;28;20111;-73
2021/05/22 00:38:50;;;;;;;0.20;0.20;;;8.50;99.90;;;;;;5093330;28;20024;-73
2021/05/22 00:41:17;;;;;;;0.20;0.20;;;8.50;99.90;;;;;;5075115;28;20548;-73
2021/05/22 00:43:43;;;;;;;0.20;0.20;;;8.60;99.90;;;;;;5093207;28;20361;-73
2021/05/22 00:46:09;;;;;;;0.20;0.20;;;8.60;99.90;;;;;;5074613;28;20066;-73
2021/05/22 00:48:35;;;;;;;0.20;0.20;;;8.70;99.90;;;;;;5075140;28;20039;-73
2021/05/22 00:51:02;;;;;;;0.20;0.20;;;8.70;99.90;;;;;;5074788;28;20020;-74
2021/05/22 00:53:28;;;;;;;0.20;0.20;;;8.80;99.90;;;;;;5074755;28;20024;-73
2021/05/22 00:55:57;;;;;;;0.30;0.30;;;8.70;99.90;;;;;;5092827;28;20292;-73
2021/05/22 00:58:23;;;;;;;0.20;0.20;;;8.50;99.90;;;;;;5075024;28;20027;-74
2021/05/22 01:00:51;;;;;;;0.20;0.20;;;8.40;99.90;;;;;;5092665;28;20024;-74
2021/05/22 01:03:29;;;;;;;0.20;0.20;;;8.30;99.90;;;;;;5092791;28;20047;-74
2021/05/22 01:06:08;;;;;;;0.20;0.20;;;8.30;99.90;;;;;;5092696;28;20161;-73
2021/05/22 01:08:36;;;;;;;0.88;0.30;;;8.30;99.90;;;;;;5092812;28;20094;-73
2021/05/22 01:11:08;;;;;;;0.20;0.20;;;8.20;99.90;;;;;;5092346;28;20055;-73
2021/05/22 01:13:37;;;;;;;0.20;0.20;;;8.20;99.90;;;;;;5074603;28;20020;-73
2021/05/22 01:16:03;;;;;;;0.30;0.30;;;8.00;99.90;;;;;;5074414;28;20024;-73
2021/05/22 01:18:31;;;;;;;0.38;0.38;;;7.90;99.90;;;;;;5092566;28;20058;-73
2021/05/22 01:20:59;;;;;;;0.63;0.52;;;7.90;99.90;;;;;;5092344;28;20039;-73
2021/05/22 01:24:01;;;;;;;0.20;0.20;;;7.90;99.90;;;;;;5092390;28;20034;-73
2021/05/22 01:26:28;;;;;;;0.20;0.20;;;7.90;99.90;;;;;;5057277;28;20024;-73
2021/05/22 01:28:57;;;;;;;0.20;0.20;;;7.90;99.90;;;;;;5092437;28;20384;-73
2021/05/22 01:31:23;;;;;;;0.20;0.20;;;7.80;99.90;;;;;;5092065;28;20027;-73
2021/05/22 01:33:49;;;;;;;0.40;0.40;;;7.70;99.90;;;;;;5074314;28;20058;-74
2021/05/22 01:36:15;;;;;;;0.20;0.20;;;7.60;99.90;;;;;;5078943;28;20029;-74
2021/05/22 01:38:41;;;;;;;0.20;0.20;;;7.50;99.90;;;;;;5072385;28;20103;-74
2021/05/22 01:41:06;;;;;;;0.20;0.20;;;7.50;99.90;;;;;;5054029;28;20104;-74
2021/05/22 01:43:32;;;;;;;0.30;0.30;;;7.40;99.90;;;;;;5037468;28;20020;-73
2021/05/22 01:45:59;;;;;;;0.30;0.30;;;7.30;99.90;;;;;;5053731;28;20476;-73
2021/05/22 01:48:26;;;;;;;0.30;0.30;;;7.30;99.90;;;;;;5053325;28;20028;-73
2021/05/22 01:51:05;;;;;;;0.10;0.10;;;7.30;99.90;;;;;;5037256;28;20051;-73
2021/05/22 01:53:32;;;;;;;0.20;0.20;;;7.30;99.90;;;;;;5071866;28;20067;-73
2021/05/22 01:55:58;;;;;;;0.20;0.20;;;7.20;99.90;;;;;;5071617;28;20020;-73
2021/05/22 01:58:24;;;;;;;0.20;0.20;;;7.40;99.90;;;;;;5053874;28;20146;-73
2021/05/22 02:00:50;;;;;;;0.20;0.20;;;7.30;99.90;;;;;;5071615;28;20085;-73
2021/05/22 02:03:29;;;;;;;0.30;0.30;;;7.30;99.90;;;;;;5071747;28;20475;-73
2021/05/22 02:05:58;;;;;;;0.20;0.20;;;7.20;99.90;;;;;;5071548;28;20121;-73
2021/05/22 02:08:24;;;;;;;0.20;0.20;;;7.20;99.90;;;;;;5053788;28;20526;-73
2021/05/22 02:10:50;;;;;;;0.40;0.40;;;7.20;99.90;;;;;;5053809;28;20020;-73
2021/05/22 02:13:18;;;;;;;0.30;0.30;;;7.30;99.90;;;;;;5071510;28;20438;-73
2021/05/22 02:15:52;;;;;;;0.20;0.20;;;7.20;99.90;;;;;;5071448;28;20035;-73
2021/05/22 02:18:18;;;;;;;1.75;1.05;;;7.30;99.90;;;;;;5071573;28;20020;-73
2021/05/22 02:20:47;;;;;;;0.17;0.17;;;7.20;99.90;;;;;;5071531;28;20044;-73
2021/05/22 02:23:14;;;;;;;0.20;0.20;;;7.20;99.90;;;;;;5053728;28;20074;-73
2021/05/22 02:25:41;;;;;;;1.30;0.22;;;7.20;99.90;;;;;;5053216;28;20492;-73
2021/05/22 02:28:08;;;;;;;0.13;0.13;;;7.20;99.90;;;;;;5053810;28;20078;-73
2021/05/22 02:30:36;;;;;;;0.20;0.20;;;7.10;99.90;;;;;;5053617;28;20029;-73
2021/05/22 02:33:03;;;;;;;0.35;0.35;;;7.20;99.90;;;;;;5053521;28;20028;-73
2021/05/22 02:35:31;;;;;;;0.20;0.20;;;7.20;99.90;;;;;;5077947;28;20410;-73
2021/05/22 02:37:57;;;;;;;0.55;0.30;;;7.20;99.90;;;;;;5091426;28;20016;-73
2021/05/22 02:40:27;;;;;;;0.30;0.30;;;7.20;99.90;;;;;;5091476;28;20103;-73
2021/05/22 02:43:01;;;;;;;0.20;0.20;;;7.20;99.90;;;;;;5073636;28;20497;-73
2021/05/22 02:45:29;;;;;;;0.20;0.20;;;7.30;99.90;;;;;;5091610;28;20105;-73
2021/05/22 02:47:56;;;;;;;0.20;0.20;;;7.30;99.90;;;;;;5091428;28;20036;-73
2021/05/22 02:50:24;;;;;;;0.30;0.30;;;7.20;99.90;;;;;;5073299;28;20028;-73
2021/05/22 02:52:53;;;;;;;0.30;0.30;;;7.20;99.90;;;;;;5073360;28;20024;-73
2021/05/22 02:55:18;;;;;;;0.20;0.20;;;7.30;99.90;;;;;;5073290;28;20495;-73
2021/05/22 02:57:46;;;;;;;0.20;0.20;;;7.40;99.90;;;;;;5073554;28;20020;-73
2021/05/22 03:00:12;;;;;;;0.25;0.25;;;7.40;99.90;;;;;;5095247;28;20387;-73
2021/05/22 03:02:39;;;;;;;0.25;0.25;;;7.40;99.90;;;;;;5095152;28;20211;-73
2021/05/22 03:05:06;;;;;;;0.20;0.20;;;7.40;99.90;;;;;;5095024;28;20035;-73
2021/05/22 03:07:35;;;;;;;0.20;0.20;;;7.50;99.90;;;;;;5094942;28;20458;-73
2021/05/22 03:10:03;;;;;;;0.40;0.40;;;7.50;99.90;;;;;;5076824;28;20081;-74
2021/05/22 03:12:32;;;;;;;0.20;0.20;;;7.50;99.90;;;;;;5076845;28;20028;-73
2021/05/22 03:14:58;;;;;;;0.25;0.25;;;7.60;99.90;;;;;;5076695;28;20063;-74
2021/05/22 03:17:24;;;;;;;0.20;0.20;;;7.70;99.90;;;;;;5076534;28;20524;-73
2021/05/22 03:19:50;;;;;;;0.20;0.20;;;7.90;99.90;;;;;;5076745;28;20051;-73
2021/05/22 03:22:16;;;;;;;0.52;0.52;;;7.80;99.90;;;;;;5094787;28;20109;-73
2021/05/22 03:24:41;;;;;;;0.20;0.20;;;7.80;99.90;;;;;;5076475;28;20024;-73
2021/05/22 03:27:08;;;;;;;0.20;0.20;;;7.90;99.90;;;;;;5076088;28;20076;-73
2021/05/22 03:29:33;;;;;;;0.20;0.20;;;7.90;99.90;;;;;;5094648;28;20055;-73
2021/05/22 03:31:59;;;;;;;0.20;0.20;;;8.00;99.90;;;;;;5059594;28;20075;-73
2021/05/22 03:34:26;;;;;;;0.40;0.40;;;8.10;99.90;;;;;;5076462;28;20100;-74
2021/05/22 03:36:52;;;;;;;1.08;0.63;;;8.00;99.90;;;;;;5041459;28;20104;-73
2021/05/22 03:39:18;;;;;;;0.30;0.30;;;7.80;99.90;;;;;;5056188;28;20128;-73
2021/05/22 03:41:44;;;;;;;0.20;0.20;;;7.70;99.90;;;;;;5056147;28;20383;-73
2021/05/22 03:44:10;;;;;;;0.20;0.20;;;7.90;99.90;;;;;;5074124;28;20024;-73
2021/05/22 03:46:35;;;;;;;0.32;0.32;;;7.80;99.90;;;;;;5073918;28;20036;-73
2021/05/22 03:49:01;;;;;;;0.10;0.10;;;7.80;99.90;;;;;;5074097;28;20020;-73
2021/05/22 03:51:27;;;;;;;0.20;0.20;;;7.80;99.90;;;;;;5073815;28;20025;-73
2021/05/22 03:53:53;;;;;;;0.25;0.25;;;7.90;99.90;;;;;;5074066;28;20104;-73
2021/05/22 03:56:19;;;;;;;0.20;0.20;;;7.90;99.90;;;;;;5073697;28;20025;-73
2021/05/22 03:58:44;;;;;;;0.20;0.20;;;7.90;99.90;;;;;;5074031;28;20024;-73
2021/05/22 04:01:10;;;;;;;0.20;0.20;;;7.90;99.90;;;;;;5073625;28;20056;-74
2021/05/22 04:03:36;;;;;;;0.20;0.20;;;7.80;99.90;;;;;;5073732;28;20468;-74
2021/05/22 04:06:02;;;;;;;0.20;0.20;;;7.90;99.90;;;;;;5055806;28;20107;-74
2021/05/22 04:08:27;;;;;;;0.20;0.20;;;7.90;99.90;;;;;;5073765;28;20416;-74
2021/05/22 04:10:53;;;;;;;0.20;0.20;;;8.00;99.90;;;;;;5054782;28;20060;-74
2021/05/22 04:13:19;;;;;;;0.20;0.20;;;8.00;99.90;;;;;;5055456;28;20033;-74
2021/05/22 04:15:45;;;;;;;0.10;0.10;;;8.10;99.90;;;;;;5055273;28;20119;-74
2021/05/22 04:18:12;;;;;;;0.20;0.20;;;8.20;99.90;;;;;;5073467;28;20103;-74
2021/05/22 04:20:38;;;;;;;0.20;0.20;;;8.20;99.90;;;;;;5073326;28;20017;-73
2021/05/22 04:23:04;;;;;;;0.20;0.20;;;8.10;99.90;;;;;;5038520;28;20040;-74
2021/05/22 04:25:29;;;;;;;0.20;0.20;;;8.10;99.90;;;;;;5073486;28;20100;-73
2021/05/22 04:27:55;;;;;;;0.20;0.20;;;8.20;99.90;;;;;;5073356;28;20060;-73
2021/05/22 04:30:22;;;;;;;0.10;0.10;;;8.30;99.90;;;;;;5055099;28;20020;-73
2021/05/22 04:32:48;;;;;;;0.20;0.20;;;8.30;99.90;;;;;;5038516;28;20062;-73
2021/05/22 04:35:14;;;;;;;0.20;0.20;;;8.40;99.90;;;;;;5077475;28;20037;-73
2021/05/22 04:37:40;;;;;;;0.17;0.17;;;8.60;99.90;;;;;;5093247;28;20020;-73
2021/05/22 04:40:06;;;;;;;0.10;0.10;;;8.70;99.90;;;;;;5093145;28;20042;-73
2021/05/22 04:42:32;;;;;;;0.20;0.20;;;8.80;99.90;;;;;;5093256;28;20502;-73
2021/05/22 04:44:59;;;;;;;0.20;0.20;;;9.00;99.90;;;;;;5093131;28;20027;-73
2021/05/22 04:47:25;;;;;;;0.10;0.10;;;9.00;99.90;;;;;;5093031;28;20059;-73
2021/05/22 04:49:50;;;;;;;0.20;0.20;;;9.10;99.90;;;;;;5092996;28;20508;-73
2021/05/22 04:52:16;;;;;;;0.20;0.20;;;9.10;99.90;;;;;;5092925;28;20539;-73
2021/05/22 04:54:42;;;;;;;0.28;0.28;;;9.00;99.90;;;;;;5074783;28;20456;-74
2021/05/22 04:57:08;;;;;;;0.30;0.30;;;8.90;99.90;;;;;;5074747;28;20024;-73
2021/05/22 04:59:33;;;;;;;0.20;0.20;;;8.80;99.90;;;;;;5092893;28;20020;-73
2021/05/22 05:01:59;;;;;;;0.20;0.20;;;8.60;99.90;;;;;;5092673;28;20024;-73
2021/05/22 05:04:25;;;;;;;0.57;0.50;;;8.60;99.90;;;;;;5092729;28;20387;-74
2021/05/22 05:06:51;;;;;;;0.20;0.20;;;8.50;99.90;;;;;;5074513;28;20489;-74
2021/05/22 05:09:17;;;;;;;0.20;0.20;;;8.40;99.90;;;;;;5093016;28;20066;-73
2021/05/22 05:11:43;;;;;;;0.20;0.20;;;8.40;99.90;;;;;;5092558;28;20028;-73
2021/05/22 05:14:08;;;;;;;0.20;0.20;;;8.40;99.90;;;;;;5074396;28;20055;-74
2021/05/22 05:16:34;;;;;;;0.20;0.20;;;8.50;99.90;;;;;;5092273;28;20056;-73
2021/05/22 05:19:00;;;;;;;0.20;0.20;;;8.60;99.90;;;;;;5074436;28;20027;-73
2021/05/22 05:21:26;;;;;;;0.40;0.40;;;8.70;99.90;;;;;;5091469;28;20048;-73
2021/05/22 05:23:51;;;;;;;0.20;0.20;;;8.80;99.90;;;;;;5074269;28;20478;-74
2021/05/22 05:26:17;;;;;;;0.20;0.20;;;8.90;99.90;;;;;;5074266;28;20024;-74
2021/05/22 05:28:43;;;;;;;0.20;0.20;;;8.90;99.90;;;;;;5074460;28;20028;-74
2021/05/22 05:31:10;;;;;;;0.17;0.17;;;9.00;99.90;;;;;;5073940;28;20070;-74
2021/05/22 05:33:35;;;;;;;0.20;0.20;;;9.20;99.90;;;;;;5074040;28;20024;-74
2021/05/22 05:36:01;;;;;;;0.40;0.40;;;9.10;99.90;;;;;;5062903;28;20020;-73
2021/05/22 05:38:27;;;;;;;0.20;0.20;;;9.00;99.90;;;;;;5054219;28;20157;-73
2021/05/22 05:40:55;;;;;;;0.10;0.10;;;8.90;99.90;;;;;;5071946;28;20017;-74
2021/05/22 05:43:21;;;;;;;0.10;0.10;;;9.00;99.90;;;;;;5054151;28;20033;-74
2021/05/22 05:45:47;;;;;;;0.20;0.20;;;9.20;99.90;;;;;;5053845;28;20476;-73
2021/05/22 05:48:14;;;;;;;0.10;0.10;;;9.20;99.90;;;;;;5053796;28;20024;-73
2021/05/22 05:50:40;;;;;;;0.20;0.20;;;9.20;99.90;;;;;;5071720;28;20028;-73
2021/05/22 05:53:05;;;;;;;0.20;0.20;;;9.40;99.90;;;;;;5071825;28;20035;-74
2021/05/22 05:55:31;;;;;;;0.20;0.20;;;9.50;99.90;;;;;;5072000;28;20032;-74
2021/05/22 05:57:57;;;;;;;0.20;0.20;;;9.30;99.90;;;;;;5071756;28;20012;-74
2021/05/22 06:00:24;;;;;;;0.15;0.15;;;9.30;99.90;;;;;;5037219;28;20044;-74
2021/05/22 06:02:50;;;;;;;0.20;0.20;;;9.30;99.90;;;;;;5071689;28;20029;-77
2021/05/22 06:05:16;;;;;;;0.20;0.20;;;9.40;99.90;;;;;;5072144;28;20025;-74
2021/05/22 06:07:42;;;;;;;0.10;0.10;;;9.60;99.90;;;;;;5053677;28;20036;-74
2021/05/22 06:10:09;;;;;;;0.20;0.20;;;9.70;99.90;;;;;;5053573;28;20059;-74
2021/05/22 06:12:36;;;;;;;0.20;0.20;;;9.90;99.90;;;;;;5053537;28;20381;-74
2021/05/22 06:17:44;;;;;;;0.20;0.20;;;10.10;99.90;;;;;;5071542;28;20026;-74
2021/05/22 06:20:11;;;;;;;0.20;0.20;;;10.10;99.90;;;;;;5071523;28;20066;-74
2021/05/22 06:22:36;;;;;;;0.20;0.20;;;10.00;99.90;;;;;;5036828;28;20031;-74
2021/05/22 06:25:03;;;;;;;0.20;0.20;;;9.90;99.90;;;;;;5071625;28;20387;-74
2021/05/22 06:27:28;;;;;;;0.13;0.13;;;10.00;99.90;;;;;;5071454;28;20035;-75
2021/05/22 06:29:54;;;;;;;0.30;0.30;;;10.20;99.90;;;;;;5053527;28;20029;-74
2021/05/22 06:32:20;;;;;;;0.10;0.10;;;10.30;99.90;;;;;;5053534;28;20025;-74
2021/05/22 06:34:45;;;;;;;0.20;0.20;;;10.30;99.90;;;;;;5057560;28;20465;-74
2021/05/22 06:37:11;;;;;;;0.85;0.75;;;10.40;99.90;;;;;;5060651;28;20028;-74
2021/05/22 06:39:37;;;;;;;0.20;0.20;;;10.40;99.90;;;;;;5077544;28;20036;-74
2021/05/22 06:42:03;;;;;;;0.10;0.10;;;10.50;99.90;;;;;;5077235;28;20366;-74
2021/05/22 06:44:42;;;;;;;0.10;0.10;;;10.50;99.90;;;;;;5060681;28;20070;-74
2021/05/22 06:47:08;;;;;;;0.20;0.20;;;10.60;99.90;;;;;;5095317;28;20016;-74
2021/05/22 06:49:34;;;;;;;0.10;0.10;;;10.70;99.90;;;;;;5095428;28;20077;-74
2021/05/22 06:52:02;;;;;;;0.20;0.20;;;10.70;99.90;;;;;;5094938;28;20471;-74
2021/05/22 06:54:30;;;;;;;0.20;0.20;;;10.60;99.90;;;;;;5077038;28;20024;-74
2021/05/22 06:56:56;;;;;;;0.10;0.10;;;10.70;99.90;;;;;;5060242;28;20021;-74
2021/05/22 06:59:22;;;;;;;0.10;0.10;;;10.80;99.90;;;;;;5076954;28;20365;-74
2021/05/22 07:01:48;;;;;;;0.10;0.10;;;10.90;99.90;;;;;;5076800;28;20035;-74
2021/05/22 07:04:13;;;;;;;0.20;0.20;;;11.00;99.90;;;;;;5076911;28;20110;-74
2021/05/22 07:06:39;;;;;;;0.20;0.20;;;11.20;99.90;;;;;;5076688;28;20031;-74
2021/05/22 07:09:06;;;;;;;0.10;0.10;;;11.40;99.90;;;;;;5076736;28;20028;-74
2021/05/22 07:11:34;;;;;;;0.30;0.30;;;11.60;99.90;;;;;;5076641;28;20032;-74
2021/05/22 07:14:00;;;;;;;0.30;0.30;;;11.70;99.90;;;;;;5076535;28;20028;-74
2021/05/22 07:16:26;;;;;;;0.10;0.10;;;11.80;99.90;;;;;;5076556;28;20028;-74
2021/05/22 07:18:51;;;;;;;0.10;0.10;;;11.60;99.90;;;;;;5076533;28;20719;-75
2021/05/22 07:21:17;;;;;;;0.30;0.30;;;11.50;99.90;;;;;;5092749;28;20468;-74
2021/05/22 07:23:43;;;;;;;0.35;0.35;;;11.30;99.90;;;;;;5056585;28;20101;-74
2021/05/22 07:26:09;;;;;;;0.10;0.10;;;11.40;99.90;;;;;;5074314;28;20056;-74
2021/05/22 07:28:35;;;;;;;0.15;0.15;;;11.40;99.90;;;;;;5056437;28;20035;-74
2021/05/22 07:31:01;;;;;;;0.20;0.20;;;11.40;99.90;;;;;;5074266;28;20028;-74
2021/05/22 07:33:28;;;;;;;0.10;0.10;;;11.60;99.90;;;;;;5056352;28;20034;-74
2021/05/22 07:35:55;;;;;;;0.20;0.20;;;11.70;99.90;;;;;;5056362;28;20464;-76
2021/05/22 07:38:21;;;;;;;0.40;0.40;;;11.50;99.90;;;;;;5056547;28;20027;-76
2021/05/22 07:40:47;;;;;;;0.30;0.30;;;11.70;99.90;;;;;;5039610;28;20025;-75
2021/05/22 07:43:13;;;;;;;0.20;0.20;;;11.70;99.40;;;;;;5056159;28;20534;-76
2021/05/22 07:45:40;;;;;;;0.20;0.20;;;12.20;99.90;;;;;;5073215;28;20086;-76
2021/05/22 07:48:06;;;;;;;2.67;0.50;;;12.20;96.80;;;;;;5074474;28;20115;-75
2021/05/22 07:50:32;;;;;;;0.17;0.17;;;11.90;95.50;;;;;;5056059;28;20492;-74
2021/05/22 07:52:58;;;;;;;0.45;0.45;;;12.10;97.20;;;;;;5055946;28;20115;-75
2021/05/22 07:55:24;;;;;;;0.10;0.10;;;12.30;95.00;;;;;;5055910;28;20020;-75
2021/05/22 07:57:50;;;;;;;0.20;0.20;;;12.40;96.00;;;;;;5055612;28;20392;-75
2021/05/22 08:00:17;;;;;;;0.10;0.10;;;12.50;95.50;;;;;;5073727;28;20380;-75
2021/05/22 08:02:43;;;;;;;0.25;0.10;;;12.70;95.70;;;;;;5073726;28;20541;-74
2021/05/22 08:05:10;;;;;;;0.17;0.17;;;12.60;93.90;;;;;;5039247;28;20299;-75
2021/05/22 08:07:36;;;;;;;0.10;0.10;;;12.80;95.40;;;;;;5055497;28;20029;-75
2021/05/22 08:10:03;;;;;;;0.43;0.30;;;13.20;93.90;;;;;;5073525;28;20028;-74
2021/05/22 08:12:29;;;;;;;1.95;0.60;;;13.30;91.40;;;;;;5055408;28;20036;-74
2021/05/22 08:14:55;;;;;;;0.10;0.10;;;13.50;91.20;;;;;;5087741;23;20028;-73
2021/05/22 08:17:22;;;;;;;0.10;0.10;;;13.50;89.80;;;;;;5053230;28;20070;-73
2021/05/22 08:19:47;;;;;;;0.20;0.20;;;13.80;90.20;;;;;;5055454;28;20025;-73
2021/05/22 08:22:13;;;;;;;0.10;0.10;;;13.90;86.60;;;;;;5038890;28;20119;-73
2021/05/22 08:24:39;;;;;;;0.32;0.30;;;14.40;88.50;;;;;;5073362;28;20479;-73
2021/05/22 08:27:05;;;;;;;9.85;1.48;;;13.70;84.20;;;;;;5073112;28;20036;-73
2021/05/22 08:29:31;;;;;;;0.88;0.40;;;13.10;87.20;;;;;;5055247;28;20077;-73
2021/05/22 08:31:57;;;;;;;2.58;0.95;;;13.10;86.60;;;;;;5073048;28;20040;-75
2021/05/22 08:34:25;;;;;;;0.20;0.20;;;13.20;84.60;;;;;;5055365;28;20107;-73
2021/05/22 08:36:51;;;;;;;0.20;0.20;;;13.50;85.80;;;;;;5054999;28;20101;-73
2021/05/22 08:39:17;;;;;;;0.75;0.40;;;13.60;83.80;;;;;;5038504;28;20040;-73
2021/05/22 08:41:44;;;;;;;0.30;0.30;;;13.50;82.60;;;;;;5072919;28;20024;-73
2021/05/22 08:44:10;;;;;;;1.17;0.40;;;13.40;80.20;;;;;;5073078;28;20042;-73
2021/05/22 08:46:36;;;;;;;1.25;0.60;;;13.40;81.10;;;;;;5072748;28;20025;-73
2021/05/22 08:49:02;;;;;;;0.20;0.20;;;13.10;79.10;;;;;;5072339;28;20024;-73
2021/05/22 08:51:27;;;;;;;0.20;0.20;;;12.80;81.60;;;;;;5072230;28;20425;-73
2021/05/22 08:53:53;;;;;;;0.35;0.35;;;13.30;82.30;;;;;;5054415;28;20101;-73
2021/05/22 08:56:19;;;;;;;0.17;0.17;;;13.00;80.40;;;;;;5072234;28;20020;-74
2021/05/22 08:58:45;;;;;;;0.20;0.20;;;13.20;81.10;;;;;;5072659;28;20027;-73
2021/05/22 09:01:11;;;;;;;0.85;0.85;;;13.60;81.60;;;;;;5054393;28;20511;-73
2021/05/22 09:03:38;;;;;;;0.20;0.20;;;13.60;78.40;;;;;;5054583;28;20020;-73
2021/05/22 09:06:04;;;;;;;1.38;0.40;;;13.90;77.30;;;;;;5072327;28;20025;-73
2021/05/22 09:08:34;;;;;;;0.20;0.20;;;14.00;75.70;;;;;;5072133;28;20043;-73
2021/05/22 09:11:06;;;;;;;0.32;0.32;;;13.90;76.10;;;;;;5072093;28;20059;-73
2021/05/22 09:13:32;;;;;;;;;;;13.70;75.50;;;;;;5072777;28;20024;-74
2021/05/22 09:16:06;;;;;;;0.30;0.30;;;13.70;75.70;;;;;;5054838;28;19912;-74
2021/05/22 09:18:37;;;;;;;0.40;0.40;;;14.30;73.40;;;;;;5072266;28;20520;-73
2021/05/22 09:21:06;;;;;;;0.22;0.22;;;14.60;72.50;;;;;;5054060;28;20024;-73
2021/05/22 09:23:36;;;;;;;0.22;0.22;;;15.20;71.90;;;;;;5052826;28;20020;-73
2021/05/22 09:26:12;;;;;;;0.10;0.10;;;15.20;69.10;;;;;;5070919;28;20036;-73
2021/05/22 09:28:45;;;;;;;0.10;0.10;;;15.00;70.90;;;;;;5071646;28;20385;-73
2021/05/22 09:31:19;;;;;;;0.10;0.10;;;14.70;71.20;;;;;;5072041;28;20031;-73
2021/05/22 09:33:46;;;;;;;0.10;0.10;;;14.70;70.80;;;;;;5053757;28;20104;-73
2021/05/22 09:36:13;;;;;;;0.20;0.20;;;15.00;67.40;;;;;;5053288;28;20028;-73
2021/05/22 09:38:48;;;;;;;0.20;0.20;;;15.10;68.50;;;;;;5072055;28;20020;-73
2021/05/22 09:41:28;;;;;;;0.10;0.10;;;15.80;66.60;;;;;;5071980;28;20016;-73
2021/05/22 09:44:09;;;;;;;0.10;0.10;;;16.10;62.20;;;;;;5053847;28;20028;-73
2021/05/22 09:46:42;;;;;;;0.40;0.40;;;16.00;64.30;;;;;;5071806;28;20017;-73
2021/05/22 09:49:07;;;;;;;0.20;0.20;;;15.10;62.90;;;;;;5071708;28;20030;-73
2021/05/22 09:51:53;;;;;;;0.20;0.20;;;14.90;66.00;;;;;;5071756;28;20084;-73
2021/05/22 09:54:43;;;;;;;0.13;0.13;;;15.30;66.80;;;;;;5071856;28;20241;-73
2021/05/22 09:57:11;;;;;;;0.40;0.40;;;16.00;63.10;;;;;;5071663;28;20020;-73
2021/05/22 09:59:37;;;;;;;0.10;0.10;;;15.80;63.00;;;;;;5072012;28;20029;-73
2021/05/22 10:02:03;;;;;;;0.10;0.10;;;15.70;64.60;;;;;;5071589;28;20107;-73
2021/05/22 10:04:29;;;;;;;0.10;0.10;;;16.20;62.90;;;;;;5071793;28;20029;-73
2021/05/22 10:06:58;;;;;;;0.20;0.20;;;16.20;61.30;;;;;;5071422;28;20387;-73
2021/05/22 10:09:25;;;;;;;0.20;0.20;;;16.30;61.50;;;;;;5052814;28;20032;-73
2021/05/22 10:12:01;;;;;;;0.10;0.10;;;16.80;61.00;;;;;;5053545;28;20032;-73
2021/05/22 10:14:36;;;;;;;0.38;0.38;;;17.60;57.10;;;;;;5071628;28;20025;-74
2021/05/22 10:17:03;;;;;;;1.00;0.65;;;17.50;56.80;;;;;;5071556;28;20025;-73
2021/05/22 10:19:31;;;;;;;0.10;0.10;;;16.90;57.60;;;;;;5071484;28;20027;-73
2021/05/22 10:21:58;;;;;;;0.28;0.28;;;16.80;58.20;;;;;;5071544;28;20031;-73
2021/05/22 10:24:25;;;;;;;0.10;0.10;;;16.50;57.80;;;;;;5071604;28;20024;-73
2021/05/22 10:26:52;;;;;;;0.20;0.20;;;16.80;59.90;;;;;;5053376;28;20082;-73
2021/05/22 10:29:19;;;;;;;2.35;0.63;;;16.50;57.70;;;;;;5071553;28;20024;-73
2021/05/22 10:31:46;;;;;;;0.20;0.20;;;16.20;59.20;;;;;;5053455;28;20108;-73
2021/05/22 10:34:17;;;;;;;0.20;0.20;;;16.50;59.20;;;;;;5071396;28;20016;-73
2021/05/22 10:36:55;;;;;;;0.10;0.10;;;17.10;57.00;;;;;;5053698;28;20029;-73
2021/05/22 10:39:43;;;;;;;0.40;0.40;;;17.70;56.50;;;;;;5053766;28;20025;-74
2021/05/22 10:42:21;;;;;;;0.43;0.40;;;17.50;55.50;;;;;;5071076;28;20048;-73
2021/05/22 10:44:47;;;;;;;1.88;0.40;;;16.70;56.50;;;;;;5071280;28;20112;-73
2021/05/22 10:47:17;;;;;;;0.30;0.30;;;16.50;58.20;;;;;;5071203;28;20480;-73
2021/05/22 10:49:53;;;;;;;0.30;0.30;;;16.70;57.20;;;;;;5071385;28;20044;-73
2021/05/22 10:52:21;;;;;;;0.10;0.10;;;16.70;58.50;;;;;;5071141;28;20078;-73
2021/05/22 10:55:02;;;;;;;0.25;0.25;;;17.80;58.40;;;;;;5071331;28;20052;-73
2021/05/22 10:57:29;;;;;;;0.30;0.30;;;18.70;55.20;;;;;;5071006;28;20096;-73
2021/05/22 11:00:14;;;;;;;0.03;0.03;;;18.40;53.50;;;;;;5071242;28;20029;-73
2021/05/22 11:02:43;;;;;;;0.20;0.20;;;19.20;54.10;;;;;;5052971;28;20035;-73
2021/05/22 11:08:12;;;;;;;0.10;0.10;;;18.70;52.60;;;;;;5071063;28;20028;-73
2021/05/22 11:10:38;;;;;;;0.32;0.28;;;18.70;55.00;;;;;;5053064;28;20275;-73
2021/05/22 11:13:06;;;;;;;3.90;0.35;;;18.70;52.80;;;;;;5052955;28;20120;-73
2021/05/22 11:15:38;;;;;;;0.10;0.10;;;19.30;52.20;;;;;;5070787;28;20573;-74
2021/05/22 11:18:04;;;;;;;0.10;0.10;;;19.60;51.00;;;;;;5053171;28;20017;-73
2021/05/22 11:20:30;;;;;;;0.10;0.10;;;19.70;50.60;;;;;;5072373;28;20025;-73
2021/05/22 11:23:00;;;;;;;0.10;0.10;;;20.20;50.90;;;;;;5074568;28;20086;-73
2021/05/22 11:25:42;;;;;;;0.38;0.10;;;20.70;49.90;;;;;;5056673;28;20024;-73
2021/05/22 11:28:10;;;;;;;16.80;0.55;;;20.30;50.50;;;;;;5039998;28;20543;-74
2021/05/22 11:30:36;;;;;;;6.82;1.73;;;20.10;49.20;;;;;;5075996;28;20533;-73
2021/05/22 11:33:02;;;;;;;0.20;0.20;;;19.90;48.80;;;;;;5074507;28;20028;-74
2021/05/22 11:35:29;;;;;;;0.40;0.40;;;20.00;49.10;;;;;;5074642;28;20497;-73
2021/05/22 11:38:17;;;;;;;0.10;0.10;;;19.90;48.80;;;;;;5074379;28;20407;-73
2021/05/22 11:40:43;;;;;;;2.83;0.32;;;20.10;50.20;;;;;;5073865;28;20484;-73
2021/05/22 11:43:16;;;;;;;0.70;0.22;;;19.80;48.90;;;;;;5074274;28;20027;-73
2021/05/22 11:45:45;;;;;;;0.10;0.10;;;19.50;50.60;;;;;;5074001;28;20214;-74
2021/05/22 11:48:30;;;;;;;0.20;0.20;;;19.70;50.30;;;;;;5074106;28;20033;-74
2021/05/22 11:50:56;;;;;;;0.10;0.10;;;20.30;49.40;;;;;;5055806;28;20025;-74
2021/05/22 11:53:27;;;;;;;0.10;0.10;;;20.60;49.20;;;;;;5073831;28;20028;-74
2021/05/22 11:55:57;;;;;;;0.15;0.15;;;20.70;48.00;;;;;;5073922;28;20024;-74
2021/05/22 11:58:23;;;;;;;0.10;0.10;;;20.40;47.60;;;;;;5073967;28;20056;-74
2021/05/22 12:00:50;;;;;;;0.20;0.20;;;20.20;48.30;;;;;;5074227;28;20063;-74
2021/05/22 12:03:26;;;;;;;0.10;0.10;;;19.90;47.70;;;;;;5055563;28;20449;-73
2021/05/22 12:05:53;;;;;;;1.27;1.17;;;19.70;48.20;;;;;;5055499;28;20111;-73
2021/05/22 12:08:27;;;;;;;0.10;0.10;;;19.40;48.90;;;;;;5055797;28;20081;-73
2021/05/22 12:10:53;;;;;;;0.20;0.20;;;19.50;49.70;;;;;;5055620;28;20526;-74
2021/05/22 12:13:19;;;;;;;0.10;0.10;;;19.60;48.00;;;;;;5055691;28;20054;-74
2021/05/22 12:15:46;;;;;;;0.10;0.10;;;19.30;49.20;;;;;;5073248;28;20391;-74
2021/05/22 12:18:19;;;;;;;0.30;0.30;;;19.40;50.40;;;;;;5055583;28;20053;-73
2021/05/22 12:20:49;;;;;;;0.13;0.13;;;19.60;49.70;;;;;;5055609;28;20028;-74
2021/05/22 12:23:36;;;;;;;1.65;0.28;;;19.70;48.50;;;;;;5055452;28;20087;-73
2021/05/22 12:26:06;;;;;;;0.10;0.10;;;19.30;48.40;;;;;;5073124;28;20021;-74
2021/05/22 12:28:33;;;;;;;0.45;0.45;;;19.40;49.40;;;;;;5073334;28;20021;-73
2021/05/22 12:31:00;;;;;;;3.10;0.68;;;19.50;47.80;;;;;;5072763;28;20380;-73
2021/05/22 12:33:27;;;;;;;0.20;0.20;;;19.20;47.60;;;;;;5073181;28;20016;-73
2021/05/22 12:36:07;;;;;;;0.17;0.17;;;18.90;50.20;;;;;;5055190;28;20035;-73
2021/05/22 12:38:40;;;;;;;0.20;0.20;;;19.20;50.80;;;;;;5073138;28;20029;-73
2021/05/22 12:41:07;;;;;;;0.10;0.10;;;19.40;48.50;;;;;;5072986;28;20476;-73
2021/05/22 12:43:41;;;;;;;0.20;0.20;;;19.20;48.00;;;;;;5073082;28;20051;-73
2021/05/22 12:46:27;;;;;;;0.85;0.20;;;18.70;47.10;;;;;;5055014;28;20024;-74
2021/05/22 12:49:08;;;;;;;0.20;0.20;;;18.80;48.70;;;;;;5072861;28;20443;-74
2021/05/22 12:51:34;;;;;;;0.10;0.10;;;18.80;48.70;;;;;;5072835;28;20480;-73
2021/05/22 12:54:30;;;;;;;0.40;0.40;;;18.80;49.20;;;;;;5072695;28;20290;-73
2021/05/22 12:56:57;;;;;;;0.13;0.13;;;18.90;47.10;;;;;;5072674;28;20021;-73
2021/05/22 12:59:23;;;;;;;0.38;0.30;;;18.90;47.10;;;;;;5038037;28;20031;-73
2021/05/22 13:02:19;;;;;;;0.20;0.20;;;18.80;46.90;;;;;;5072501;28;20025;-73
2021/05/22 13:04:50;;;;;;;0.35;0.35;;;18.20;48.00;;;;;;5072599;28;20021;-73